Time;durP1;ratioP1;P1;durP2;ratioP2;P2;SDS_P1;SDS_P2;PMS_P1;PMS_P2;Temp;Humidity;BMP_temperature;BMP_pressure;BME280_temperature;BME280_humidity;BME280_pressure;Samples;Min_cycle;Max_cycle;Signal;HPM_P1;HPM_P2
2021/12/24 00:01:06;;;;;;;50.90;32.60;;;;;;;7.70;100.00;100501.69;5016328;28;20022;-49
2021/12/24 00:03:33;;;;;;;49.92;31.67;;;;;;;7.77;100.00;100489.50;5016448;28;20044;-49
2021/12/24 00:05:59;;;;;;;50.78;31.92;;;;;;;7.78;100.00;100478.25;5014958;28;20120;-50
2021/12/24 00:08:24;;;;;;;52.30;35.15;;;;;;;7.78;100.00;100483.44;5016276;28;20524;-49
2021/12/24 00:10:58;;;;;;;56.10;35.35;;;;;;;7.81;100.00;100484.31;5016261;28;20030;-49
2021/12/24 00:13:24;;;;;;;53.28;33.10;;;;;;;7.80;100.00;100476.53;5016022;28;20125;-51
2021/12/24 00:36:55;;;;;;;63.40;37.75;;;;;;;8.00;100.00;100477.34;5015821;28;20084;-49
2021/12/24 00:39:20;;;;;;;69.18;39.10;;;;;;;8.02;100.00;100478.16;5015540;28;20055;-50
2021/12/24 00:41:45;;;;;;;79.32;41.00;;;;;;;7.99;100.00;100467.78;5015572;28;20060;-49
2021/12/24 00:44:11;;;;;;;69.03;40.72;;;;;;;7.98;100.00;100466.91;5015531;28;20389;-48
2021/12/24 00:46:37;;;;;;;70.20;39.63;;;;;;;8.02;100.00;100459.97;5015507;28;20029;-50
2021/12/24 00:49:03;;;;;;;65.22;38.70;;;;;;;8.08;100.00;100470.34;5015491;28;20021;-49
2021/12/24 00:52:06;;;;;;;67.43;38.58;;;;;;;8.12;100.00;100459.03;5015578;28;20026;-49
2021/12/24 00:57:13;;;;;;;71.25;37.03;;;;;;;8.19;100.00;100470.31;5015416;28;19936;-50
2021/12/24 00:59:38;;;;;;;64.97;37.83;;;;;;;8.24;100.00;100505.81;5015238;28;20486;-51
2021/12/24 01:02:04;;;;;;;64.45;37.70;;;;;;;8.20;100.00;100457.25;5013409;28;20049;-49
2021/12/24 01:04:30;;;;;;;65.00;38.15;;;;;;;8.30;100.00;100477.22;5014093;28;20022;-49
2021/12/24 01:06:56;;;;;;;63.80;37.20;;;;;;;8.36;100.00;100474.56;5015110;28;20018;-49
2021/12/24 01:09:21;;;;;;;63.88;38.88;;;;;;;8.40;100.00;100480.66;5015063;28;20026;-51
2021/12/24 01:11:47;;;;;;;67.75;38.63;;;;;;;8.41;100.00;100472.81;5014725;28;20042;-51
2021/12/24 01:14:12;;;;;;;68.10;37.80;;;;;;;8.42;100.00;100484.97;5013762;28;20117;-49
2021/12/24 01:16:45;;;;;;;81.82;39.17;;;;;;;8.42;100.00;100479.75;5014947;28;20033;-51
2021/12/24 01:19:17;;;;;;;75.20;40.33;;;;;;;8.44;100.00;100475.41;5014912;28;20025;-50
2021/12/24 01:24:13;;;;;;;78.88;38.20;;;;;;;8.46;100.00;100481.47;5015016;28;20045;-51
2021/12/24 01:26:49;;;;;;;61.20;35.70;;;;;;;8.48;100.00;100479.72;5014785;28;20037;-49
2021/12/24 01:29:39;;;;;;;;;;;;;;;;;;;;;
2021/12/24 01:40:22;;;;;;;62.95;34.10;;;;;;;8.52;100.00;100466.69;5014672;28;20084;-49
2021/12/24 01:42:48;;;;;;;73.43;35.47;;;;;;;8.59;100.00;100471.84;5014474;28;20025;-49
2021/12/24 01:45:26;;;;;;;66.25;35.40;;;;;;;8.61;100.00;100464.00;5014551;28;20050;-49
2021/12/24 01:47:55;;;;;;;62.72;36.50;;;;;;;8.60;100.00;100462.31;5014428;28;20447;-49
2021/12/24 01:50:22;;;;;;;67.25;35.67;;;;;;;8.62;100.00;100463.16;5013203;28;20021;-49
2021/12/24 01:52:49;;;;;;;63.47;33.92;;;;;;;8.62;100.00;100466.63;5014319;28;20061;-49
2021/12/24 01:55:16;;;;;;;60.42;33.13;;;;;;;8.64;100.00;100469.22;5014298;28;20112;-49
2021/12/24 01:57:43;;;;;;;67.15;34.80;;;;;;;8.64;100.00;100454.44;5014422;28;20113;-49
2021/12/24 02:00:13;;;;;;;57.33;32.35;;;;;;;8.66;100.00;100467.47;5014334;28;20026;-49
2021/12/24 02:02:38;;;;;;;61.22;33.17;;;;;;;8.64;100.00;100469.22;5014313;28;20026;-49
2021/12/24 02:05:04;;;;;;;68.15;32.53;;;;;;;8.63;100.00;100467.50;5014175;28;20512;-51
2021/12/24 02:07:30;;;;;;;59.53;31.10;;;;;;;8.64;100.00;100469.22;5014195;28;20108;-51
2021/12/24 02:09:55;;;;;;;55.25;31.85;;;;;;;8.67;100.00;100461.38;5014120;28;20409;-50
2021/12/24 02:12:23;;;;;;;52.88;30.77;;;;;;;8.61;100.00;100475.31;5014057;28;20545;-51
2021/12/24 02:14:52;;;;;;;56.13;29.70;;;;;;;8.64;100.00;100469.22;5013176;28;20465;-49
2021/12/24 02:30:49;;;;;;;50.88;26.00;;;;;;;8.67;100.00;100474.41;5014285;28;20076;-51
2021/12/24 02:33:15;;;;;;;49.63;23.77;;;;;;;8.66;100.00;100477.88;5012819;28;20053;-50
2021/12/24 02:35:41;;;;;;;49.47;26.35;;;;;;;8.61;100.00;100474.44;5013829;28;20032;-52
2021/12/24 02:38:06;;;;;;;47.25;24.02;;;;;;;8.62;100.00;100470.97;5013887;28;20397;-51
2021/12/24 02:40:32;;;;;;;46.47;22.92;;;;;;;8.61;100.00;100484.84;5014034;28;20041;-51
2021/12/24 02:42:59;;;;;;;45.30;22.95;;;;;;;8.57;100.00;100470.13;5013798;28;20491;-51
2021/12/24 02:45:26;;;;;;;45.25;21.75;;;;;;;8.61;100.00;100475.31;5013893;28;20111;-49
2021/12/24 02:56:02;;;;;;;41.17;16.38;;;;;;;8.65;100.00;100474.41;4994543;28;20114;-49
2021/12/24 02:58:37;;;;;;;38.45;14.90;;;;;;;8.70;100.00;100471.78;4994092;28;20034;-51
2021/12/24 03:01:03;;;;;;;45.53;14.07;;;;;;;8.70;100.00;100466.56;4994203;28;20034;-49
2021/12/24 03:03:28;;;;;;;37.35;13.48;;;;;;;8.70;100.00;100466.56;4994164;28;20027;-52
2021/12/24 03:05:53;;;;;;;38.13;13.20;;;;;;;8.72;100.00;100478.69;4994058;28;20025;-49
2021/12/24 03:08:19;;;;;;;30.63;12.10;;;;;;;8.73;100.00;100479.56;4994064;28;20488;-49
2021/12/24 03:10:44;;;;;;;31.33;11.20;;;;;;;8.73;100.00;100484.78;5004997;23;20050;-49
2021/12/24 03:13:10;;;;;;;30.48;11.35;;;;;;;8.75;100.00;100476.09;5013625;28;20026;-49
2021/12/24 03:15:38;;;;;;;30.58;10.93;;;;;;;8.77;100.00;100465.66;5013652;28;20385;-49
2021/12/24 03:18:03;;;;;;;30.75;10.50;;;;;;;8.77;100.00;100470.84;5013816;28;20376;-51
2021/12/24 03:20:34;;;;;;;29.00;9.63;;;;;;;8.72;100.00;100473.47;5013680;28;20030;-50
2021/12/24 03:23:21;;;;;;;;;;;;;;;8.72;100.00;100475.25;5013944;28;20489;-49
2021/12/24 03:25:47;;;;;;;31.13;12.00;;;;;;;8.74;100.00;100465.69;5015132;28;19932;-51
2021/12/24 03:28:12;;;;;;;33.30;11.65;;;;;;;8.73;100.00;100474.34;5017938;28;20053;-49
2021/12/24 03:30:37;;;;;;;34.47;11.25;;;;;;;8.72;100.00;100464.84;5017193;28;20026;-48
2021/12/24 03:33:03;;;;;;;29.33;10.80;;;;;;;8.71;100.00;100473.50;5017043;28;20014;-49
2021/12/24 03:35:28;;;;;;;35.15;10.55;;;;;;;8.72;100.00;100470.88;5017036;28;20435;-48
2021/12/24 03:37:54;;;;;;;33.72;12.02;;;;;;;8.72;100.00;100462.22;5016740;28;20546;-49
2021/12/24 03:40:19;;;;;;;25.85;11.23;;;;;;;8.74;100.00;100455.25;5016912;28;20029;-49
2021/12/24 03:42:45;;;;;;;25.13;10.30;;;;;;;8.76;100.00;100463.91;5017005;28;20034;-49
2021/12/24 03:45:25;;;;;;;29.55;9.95;;;;;;;8.74;100.00;100465.69;5016737;28;20029;-49
2021/12/24 03:47:56;;;;;;;30.10;9.98;;;;;;;8.71;100.00;100465.69;5016790;28;20033;-49
2021/12/24 03:50:26;;;;;;;37.30;9.77;;;;;;;8.67;100.00;100464.00;5016722;28;20397;-48
2021/12/24 03:53:04;;;;;;;27.90;9.95;;;;;;;8.67;100.00;100471.81;5016580;28;20563;-49
2021/12/24 03:55:30;;;;;;;26.95;8.50;;;;;;;8.61;100.00;100461.41;5016665;28;20022;-49
2021/12/24 03:57:55;;;;;;;34.00;8.13;;;;;;;8.61;100.00;100479.63;5016331;28;20076;-48
2021/12/24 04:00:32;;;;;;;30.67;8.00;;;;;;;8.59;100.00;100468.38;5016394;28;20436;-49
2021/12/24 04:02:57;;;;;;;24.42;7.05;;;;;;;8.56;100.00;100468.41;5016398;28;20021;-49
2021/12/24 04:05:23;;;;;;;26.85;7.53;;;;;;;8.45;100.00;100458.03;5016401;28;20026;-49
2021/12/24 04:07:49;;;;;;;34.28;8.50;;;;;;;8.49;100.00;100464.97;5016209;28;20021;-50
2021/12/24 04:12:43;;;;;;;25.08;8.55;;;;;;;8.41;100.00;100470.22;5015286;28;20038;-51
2021/12/24 04:15:09;;;;;;;27.30;8.68;;;;;;;8.37;100.00;100471.09;5013950;28;20029;-50
2021/12/24 04:17:37;;;;;;;28.25;8.32;;;;;;;8.38;100.00;100462.44;5015172;28;20030;-50
2021/12/24 04:25:27;;;;;;;1999.90;999.90;;;;;;;8.28;100.00;100473.72;5015299;28;20092;-49
2021/12/24 04:27:56;;;;;;;28.23;6.47;;;;;;;8.26;100.00;100462.44;5014807;28;20033;-48
2021/12/24 04:30:27;;;;;;;28.05;7.38;;;;;;;8.33;100.00;100479.78;5014753;28;20469;-48
2021/12/24 04:33:07;;;;;;;29.65;7.93;;;;;;;8.33;100.00;100464.19;5014814;28;20021;-48
2021/12/24 04:35:46;;;;;;;30.13;8.55;;;;;;;8.31;100.00;100471.16;5015105;28;20037;-48
2021/12/24 04:38:32;;;;;;;;;;;;;;;;;;;;;
2021/12/24 04:51:56;;;;;;;26.42;6.43;;;;;;;8.16;100.00;100471.16;5014850;28;20045;-48
2021/12/24 05:02:52;;;;;;;;;;;;;;;;;;;;;
2021/12/24 05:10:15;;;;;;;29.27;11.73;;;;;;;8.06;100.00;100464.28;4976154;28;1097809;-49
2021/12/24 05:12:40;;;;;;;26.13;9.02;;;;;;;8.12;100.00;100464.25;5015009;28;20025;-49
2021/12/24 05:15:10;;;;;;;37.15;14.30;;;;;;;8.09;100.00;100463.38;5015029;28;20084;-51
2021/12/24 05:22:54;;;;;;;27.92;15.25;;;;;;;8.13;100.00;100460.78;5014187;28;20139;-48
2021/12/24 05:25:21;;;;;;;30.40;17.63;;;;;;;8.11;100.00;100478.16;5014846;28;20493;-51
2021/12/24 05:27:47;;;;;;;23.02;10.27;;;;;;;8.13;100.00;100472.91;5014813;28;20033;-48
2021/12/24 05:30:12;;;;;;;34.97;14.10;;;;;;;8.12;100.00;100469.44;5014868;28;20473;-48
2021/12/24 05:32:37;;;;;;;26.55;12.00;;;;;;;8.12;100.00;100469.44;5014615;28;20104;-49
2021/12/24 05:35:05;;;;;;;26.80;8.90;;;;;;;8.14;100.00;100470.31;5014780;28;20362;-48
2021/12/24 05:37:30;;;;;;;21.08;9.55;;;;;;;8.12;100.00;100468.59;5014699;28;20033;-49
2021/12/24 05:39:55;;;;;;;18.98;7.72;;;;;;;8.14;100.00;100466.84;5014486;28;20033;-49
2021/12/24 05:42:23;;;;;;;34.13;8.48;;;;;;;8.10;100.00;100473.81;5014610;28;20393;-48
2021/12/24 05:44:49;;;;;;;21.42;8.00;;;;;;;8.05;100.00;100483.34;5014632;28;20018;-52
2021/12/24 05:47:14;;;;;;;33.28;7.85;;;;;;;7.99;100.00;100468.66;5014357;28;20025;-48
2021/12/24 05:49:41;;;;;;;23.85;8.80;;;;;;;7.97;100.00;100461.72;5014315;28;20061;-48
2021/12/24 05:52:07;;;;;;;21.85;7.18;;;;;;;7.91;100.00;100461.75;5013195;28;20022;-48
2021/12/24 05:54:32;;;;;;;27.98;6.90;;;;;;;7.85;100.00;100460.00;5014511;28;20456;-49
2021/12/24 05:56:58;;;;;;;22.42;8.40;;;;;;;7.86;100.00;100466.09;5014515;28;20028;-48
2021/12/24 05:59:23;;;;;;;31.90;8.77;;;;;;;7.78;100.00;100462.66;5014269;28;20139;-48
2021/12/24 06:01:49;;;;;;;28.42;9.80;;;;;;;7.73;100.00;100473.06;5014362;28;20072;-48
2021/12/24 06:04:14;;;;;;;33.00;9.23;;;;;;;7.73;100.00;100480.00;5014231;28;20064;-49
2021/12/24 06:06:40;;;;;;;27.80;10.88;;;;;;;7.68;100.00;100471.34;5014251;28;20041;-48
2021/12/24 06:09:05;;;;;;;28.13;8.32;;;;;;;7.65;100.00;100472.22;5014256;28;20060;-48
2021/12/24 06:11:31;;;;;;;34.83;9.43;;;;;;;7.60;100.00;100493.91;5014221;28;20100;-48
2021/12/24 06:13:56;;;;;;;22.02;9.20;;;;;;;7.52;100.00;100476.56;5014314;28;20029;-48
2021/12/24 06:16:22;;;;;;;36.95;10.20;;;;;;;7.57;100.00;100484.34;5013061;28;20040;-48
2021/12/24 06:18:48;;;;;;;24.58;9.30;;;;;;;7.55;100.00;100481.78;5014037;28;20030;-47
2021/12/24 06:21:14;;;;;;;25.15;10.15;;;;;;;7.54;100.00;100484.38;5014091;28;20469;-47
2021/12/24 06:23:41;;;;;;;29.55;8.18;;;;;;;7.52;100.00;100493.94;5014091;28;20030;-48
2021/12/24 06:26:10;;;;;;;30.65;8.57;;;;;;;7.48;100.00;100490.44;5013927;28;20021;-49
2021/12/24 06:28:36;;;;;;;22.63;8.70;;;;;;;7.44;100.00;100488.69;5014104;28;20093;-48
2021/12/24 06:31:02;;;;;;;27.88;8.63;;;;;;;7.44;100.00;100493.91;5013962;28;20026;-49
2021/12/24 06:33:28;;;;;;;38.53;8.70;;;;;;;7.45;100.00;100493.03;5012627;28;20072;-47
2021/12/24 06:35:55;;;;;;;23.80;7.88;;;;;;;7.45;100.00;100479.19;5013941;28;20373;-50
2021/12/24 06:38:21;;;;;;;31.65;9.13;;;;;;;7.32;100.00;100473.16;5014201;28;20397;-51
2021/12/24 06:40:47;;;;;;;30.08;9.27;;;;;;;7.40;100.00;100484.41;5013873;28;20021;-48
2021/12/24 06:43:12;;;;;;;32.58;10.07;;;;;;;7.42;100.00;100480.06;5013806;28;20037;-50
2021/12/24 06:45:38;;;;;;;26.77;9.63;;;;;;;7.41;100.00;100488.72;5013768;28;20113;-49
2021/12/24 06:48:04;;;;;;;33.83;10.48;;;;;;;7.37;100.00;100487.00;5013779;28;20029;-48
2021/12/24 06:50:31;;;;;;;27.27;10.68;;;;;;;7.41;100.00;100488.72;5013730;28;20109;-48
2021/12/24 06:52:56;;;;;;;38.15;11.45;;;;;;;7.40;100.00;100492.22;5013772;28;20026;-49
2021/12/24 06:55:22;;;;;;;37.50;14.55;;;;;;;7.40;100.00;100492.22;5013630;28;20346;-50
2021/12/24 06:57:48;;;;;;;36.38;13.35;;;;;;;7.39;100.00;100489.59;5013845;28;20021;-49
2021/12/24 07:00:19;;;;;;;35.45;11.98;;;;;;;7.40;100.00;100487.00;5014152;28;20041;-51
2021/12/24 07:02:46;;;;;;;32.50;11.25;;;;;;;7.42;100.00;100494.78;5017503;28;20025;-49
2021/12/24 07:05:11;;;;;;;29.17;12.13;;;;;;;7.45;100.00;100492.19;5017456;28;20041;-50
2021/12/24 07:07:37;;;;;;;32.60;13.55;;;;;;;7.43;100.00;100492.19;5017384;28;20025;-48
2021/12/24 07:10:03;;;;;;;36.88;13.48;;;;;;;7.46;100.00;100502.59;5017430;28;20109;-48
2021/12/24 07:12:28;;;;;;;34.45;12.57;;;;;;;7.40;100.00;100489.59;5017179;28;20084;-48
2021/12/24 07:14:54;;;;;;;37.92;12.85;;;;;;;7.45;100.00;100490.44;5017165;28;20026;-48
2021/12/24 07:17:19;;;;;;;31.15;12.10;;;;;;;7.47;100.00;100493.94;5017273;28;20021;-48
2021/12/24 07:19:44;;;;;;;40.08;12.05;;;;;;;7.46;100.00;100486.97;5006176;28;20029;-48
2021/12/24 07:22:12;;;;;;;32.38;11.63;;;;;;;7.52;100.00;100476.56;5007798;28;20036;-48
2021/12/24 07:24:38;;;;;;;39.20;13.10;;;;;;;7.52;100.00;100484.38;5002915;28;20027;-49
2021/12/24 07:27:03;;;;;;;27.85;9.95;;;;;;;7.54;100.00;100480.03;5008885;28;20117;-47
2021/12/24 07:29:29;;;;;;;26.42;9.65;;;;;;;7.60;100.00;100473.09;5010973;28;20084;-49
2021/12/24 07:31:55;;;;;;;33.72;10.98;;;;;;;7.62;100.00;100468.75;5010034;28;20072;-47
2021/12/24 07:34:20;;;;;;;28.80;10.77;;;;;;;7.64;100.00;100469.63;5009501;28;20433;-48
2021/12/24 07:36:46;;;;;;;32.05;9.88;;;;;;;7.65;100.00;100468.75;5016652;28;20022;-49
2021/12/24 07:39:11;;;;;;;34.75;10.02;;;;;;;7.63;100.00;100488.69;5016682;28;20025;-50
2021/12/24 07:41:37;;;;;;;27.00;10.43;;;;;;;7.63;100.00;100478.28;5016509;28;20022;-47
2021/12/24 07:44:03;;;;;;;33.38;9.52;;;;;;;7.54;100.00;100454.03;5016727;28;20025;-47
2021/12/24 07:46:35;;;;;;;28.60;8.80;;;;;;;7.64;100.00;100486.09;5016623;28;20033;-47
2021/12/24 07:49:12;;;;;;;38.90;10.85;;;;;;;7.65;100.00;100466.13;5016640;28;20097;-48
2021/12/24 07:52:01;;;;;;;29.05;8.98;;;;;;;7.67;100.00;100474.81;5016663;28;20148;-50
2021/12/24 07:54:27;;;;;;;24.50;8.27;;;;;;;7.68;100.00;100492.16;5016332;28;20037;-50
2021/12/24 07:56:52;;;;;;;28.63;9.05;;;;;;;7.69;100.00;100475.66;5016414;28;20023;-48
2021/12/24 07:59:18;;;;;;;22.20;8.27;;;;;;;7.59;100.00;100471.38;5016453;28;20040;-50
2021/12/24 08:01:45;;;;;;;29.58;9.68;;;;;;;7.65;100.00;100489.53;5017644;28;20037;-47
2021/12/24 08:04:11;;;;;;;32.40;9.63;;;;;;;7.57;100.00;100469.63;5016712;28;20477;-48
2021/12/24 08:06:37;;;;;;;293.67;277.85;;;;;;;7.63;100.00;100483.50;5016558;28;20037;-47
2021/12/24 08:09:06;;;;;;;1999.90;999.90;;;;;;;7.67;100.00;100482.63;5016247;28;20097;-47
2021/12/24 08:11:32;;;;;;;1999.90;999.90;;;;;;;7.64;100.00;100490.44;5015947;28;20054;-47
2021/12/24 08:13:57;;;;;;;470.63;444.40;;;;;;;7.69;100.00;100488.66;5016078;28;20083;-46
2021/12/24 08:16:23;;;;;;;1999.90;999.90;;;;;;;7.70;100.00;100480.00;5016069;28;20040;-48
2021/12/24 08:18:49;;;;;;;377.90;358.17;;;;;;;7.74;100.00;100476.53;5011543;28;20493;-47
2021/12/24 08:21:14;;;;;;;1999.90;999.90;;;;;;;7.76;100.00;100475.66;5005113;28;20026;-52
2021/12/24 08:23:41;;;;;;;1999.90;999.90;;;;;;;7.76;100.00;100480.00;4996540;28;20038;-50
2021/12/24 08:26:07;;;;;;;1999.90;999.90;;;;;;;7.78;100.00;100478.25;4996457;28;20023;-50
2021/12/24 08:28:32;;;;;;;337.40;319.95;;;;;;;7.79;100.00;100465.25;4996423;28;20018;-49
2021/12/24 08:30:58;;;;;;;187.60;177.55;;;;;;;7.83;100.00;100476.50;4996082;28;20478;-52
2021/12/24 08:33:23;;;;;;;105.60;98.28;;;;;;;7.81;100.00;100478.22;4996098;28;20497;-49
2021/12/24 08:35:48;;;;;;;80.90;75.30;;;;;;;7.87;100.00;100462.63;5007619;28;20153;-50
2021/12/24 08:38:14;;;;;;;46.28;41.78;;;;;;;7.90;100.00;100478.22;5013644;28;20042;-49
2021/12/24 08:40:39;;;;;;;36.17;32.20;;;;;;;7.90;100.00;100476.47;5010470;28;20432;-50
2021/12/24 08:43:04;;;;;;;32.58;28.13;;;;;;;7.91;100.00;100479.94;5012973;28;20176;-51
2021/12/24 08:45:30;;;;;;;37.65;26.17;;;;;;;7.90;100.00;100479.09;5013702;28;20057;-51
2021/12/24 08:47:55;;;;;;;10.75;10.20;;;;;;;7.91;100.00;100472.16;5013890;28;20033;-47
2021/12/24 08:50:21;;;;;;;12.70;12.23;;;;;;;7.89;100.00;100466.06;5014637;28;20022;-49
2021/12/24 08:52:46;;;;;;;1999.90;999.90;;;;;;;7.92;100.00;100482.53;5015426;28;20089;-47
2021/12/24 08:55:15;;;;;;;1999.90;999.90;;;;;;;7.93;100.00;100473.88;5015438;28;20493;-49
2021/12/24 08:57:42;;;;;;;1999.90;999.90;;;;;;;7.99;100.00;100467.78;5007497;28;20026;-48
2021/12/24 09:00:09;;;;;;;95.00;84.32;;;;;;;8.01;100.00;100466.03;4995563;28;20389;-49
2021/12/24 09:02:36;;;;;;;48.72;42.53;;;;;;;8.01;100.00;100466.03;5002339;28;20030;-48
2021/12/24 09:05:06;;;;;;;31.52;22.25;;;;;;;8.06;100.00;100469.47;4996322;28;20034;-51
2021/12/24 09:07:32;;;;;;;30.05;15.35;;;;;;;8.06;100.00;100464.28;4995673;28;20030;-48
2021/12/24 09:09:58;;;;;;;30.17;13.65;;;;;;;8.11;100.00;100483.34;4995511;28;20093;-49
2021/12/24 09:12:23;;;;;;;38.60;13.98;;;;;;;8.10;100.00;100465.13;4995398;28;20077;-51
2021/12/24 09:14:49;;;;;;;37.55;13.15;;;;;;;8.09;100.00;100473.78;4995528;28;20061;-49
2021/12/24 09:17:14;;;;;;;33.40;12.68;;;;;;;8.08;100.00;100466.88;4995362;28;20045;-49
2021/12/24 09:19:46;;;;;;;32.15;13.35;;;;;;;8.09;100.00;100474.66;4995248;28;20084;-50
2021/12/24 09:22:16;;;;;;;39.85;16.30;;;;;;;8.07;100.00;100484.22;4995435;28;20113;-51
2021/12/24 09:24:43;;;;;;;33.33;14.23;;;;;;;8.11;100.00;100470.34;4994913;28;20038;-50
2021/12/24 09:27:08;;;;;;;31.00;14.43;;;;;;;8.14;100.00;100454.72;4995311;28;20101;-51
2021/12/24 09:29:34;;;;;;;32.40;13.52;;;;;;;8.16;100.00;100463.34;4995225;28;20470;-49
2021/12/24 09:31:59;;;;;;;31.55;12.18;;;;;;;8.14;100.00;100462.50;4995064;28;20577;-51
2021/12/24 09:34:25;;;;;;;37.95;13.70;;;;;;;8.14;100.00;100456.44;4995101;28;20022;-47
2021/12/24 09:36:51;;;;;;;25.90;11.93;;;;;;;8.19;100.00;100471.16;4995116;28;20031;-49
2021/12/24 09:39:16;;;;;;;39.40;13.50;;;;;;;8.24;100.00;100472.00;4995053;28;20049;-48
2021/12/24 09:41:42;;;;;;;30.17;12.63;;;;;;;8.24;100.00;100461.59;4995160;28;20088;-48
2021/12/24 09:44:08;;;;;;;31.83;13.90;;;;;;;8.25;100.00;100465.91;4995059;28;20046;-50
2021/12/24 09:46:36;;;;;;;35.75;12.60;;;;;;;8.28;100.00;100455.50;4994925;28;20030;-48
2021/12/24 09:49:02;;;;;;;34.20;12.85;;;;;;;8.33;100.00;100464.19;4994669;28;20018;-49
2021/12/24 09:51:27;;;;;;;28.92;11.82;;;;;;;8.36;100.00;100456.34;4994841;28;20038;-49
2021/12/24 09:53:55;;;;;;;28.42;12.40;;;;;;;8.38;100.00;100452.00;4994882;28;20026;-50
2021/12/24 09:56:21;;;;;;;37.15;14.60;;;;;;;8.40;100.00;100449.41;4994886;28;20030;-48
2021/12/24 09:58:47;;;;;;;34.10;14.77;;;;;;;8.41;100.00;100457.19;4994648;28;20045;-49
2021/12/24 10:01:38;;;;;;;36.25;13.38;;;;;;;8.46;100.00;100468.47;4994830;28;20026;-47
2021/12/24 10:04:10;;;;;;;32.67;13.07;;;;;;;8.53;100.00;100465.81;4994570;28;20022;-48
2021/12/24 10:06:35;;;;;;;30.27;13.45;;;;;;;8.62;100.00;100470.97;4994566;28;20501;-50
2021/12/24 10:09:05;;;;;;;28.33;13.43;;;;;;;8.61;100.00;100475.31;4994667;28;20033;-48
2021/12/24 10:11:46;;;;;;;26.87;13.50;;;;;;;8.60;100.00;100472.72;4994487;28;20129;-48
2021/12/24 10:14:11;;;;;;;32.38;13.10;;;;;;;8.56;100.00;100471.00;4994630;28;20057;-49
2021/12/24 10:16:41;;;;;;;36.85;14.18;;;;;;;8.56;100.00;100476.22;4994555;28;20433;-48
2021/12/24 10:19:08;;;;;;;35.75;13.88;;;;;;;8.60;100.00;100478.78;4994431;28;20027;-49
2021/12/24 10:21:34;;;;;;;38.90;13.85;;;;;;;8.66;100.00;100467.47;4994429;28;20085;-50
2021/12/24 10:24:12;;;;;;;40.65;15.07;;;;;;;8.64;100.00;100484.84;4994400;28;20035;-49
2021/12/24 10:26:42;;;;;;;27.63;14.00;;;;;;;8.64;100.00;100474.44;4994343;28;20468;-48
2021/12/24 10:29:14;;;;;;;29.17;14.90;;;;;;;8.60;100.00;100473.56;4994405;28;20385;-50
2021/12/24 10:31:40;;;;;;;33.30;14.95;;;;;;;8.66;100.00;100467.47;4994421;28;20031;-49
2021/12/24 10:34:07;;;;;;;36.65;14.52;;;;;;;8.67;100.00;100475.28;4994238;28;20347;-47
2021/12/24 10:36:49;;;;;;;39.70;17.20;;;;;;;8.63;100.00;100462.28;4997164;28;20045;-50
2021/12/24 10:39:19;;;;;;;32.75;16.80;;;;;;;8.67;100.00;100459.66;4998303;28;20030;-47
2021/12/24 10:41:47;;;;;;;40.25;18.20;;;;;;;8.72;100.00;100446.59;4999264;28;20437;-47
2021/12/24 10:44:19;;;;;;;25.92;15.82;;;;;;;8.81;100.00;100459.53;4998318;28;20022;-47
2021/12/24 10:47:10;;;;;;;41.45;18.10;;;;;;;8.80;100.00;100450.00;4998232;28;20034;-47
2021/12/24 10:52:32;;;;;;;37.03;18.08;;;;;;;8.80;100.00;100445.66;4998106;28;20034;-48
2021/12/24 10:55:08;;;;;;;38.17;17.25;;;;;;;8.85;100.00;100449.09;4997926;28;20440;-47
2021/12/24 10:57:35;;;;;;;32.60;15.80;;;;;;;8.91;100.00;100453.41;4998063;28;20081;-49
2021/12/24 11:00:04;;;;;;;34.25;16.15;;;;;;;8.90;100.00;100446.44;4997906;28;20033;-48
2021/12/24 11:02:35;;;;;;;40.45;17.42;;;;;;;8.84;100.00;100438.66;4998032;28;20057;-48
2021/12/24 11:05:01;;;;;;;33.05;15.90;;;;;;;8.92;100.00;100434.25;4997848;28;20023;-48
2021/12/24 11:07:42;;;;;;;32.80;16.17;;;;;;;8.93;100.00;100425.56;4997796;28;20019;-47
2021/12/24 11:10:22;;;;;;;38.50;16.52;;;;;;;8.89;100.00;100423.88;4997872;28;20033;-49
2021/12/24 11:12:49;;;;;;;41.63;16.88;;;;;;;8.96;100.00;100425.53;4997723;28;20070;-49
2021/12/24 11:15:32;;;;;;;35.05;15.77;;;;;;;8.95;100.00;100429.91;4997627;28;20117;-49
2021/12/24 11:18:22;;;;;;;41.55;16.95;;;;;;;8.92;100.00;100424.72;4997668;28;20108;-51
2021/12/24 11:21:17;;;;;;;31.20;15.32;;;;;;;9.02;100.00;100430.72;4997177;28;20050;-49
2021/12/24 11:23:43;;;;;;;33.08;16.15;;;;;;;9.08;100.00;100425.44;4997587;28;20109;-49
2021/12/24 11:26:15;;;;;;;40.85;17.42;;;;;;;9.18;100.00;100424.50;4996336;28;20057;-49
2021/12/24 11:28:41;;;;;;;41.67;18.23;;;;;;;9.12;100.00;100427.13;4997455;28;20038;-51
2021/12/24 11:31:09;;;;;;;35.30;16.13;;;;;;;9.06;100.00;100429.81;4997475;28;20065;-48
2021/12/24 11:33:37;;;;;;;35.45;16.25;;;;;;;9.01;100.00;100425.50;4997185;28;20029;-48
2021/12/24 11:36:06;;;;;;;1999.90;999.90;;;;;;;8.98;100.00;100422.94;4996158;28;20034;-47
2021/12/24 11:38:36;;;;;;;1999.90;999.90;;;;;;;9.01;100.00;100418.56;4997387;28;20030;-48
2021/12/24 11:41:04;;;;;;;1999.90;999.90;;;;;;;9.00;100.00;100416.81;4997424;28;20022;-49
2021/12/24 11:43:33;;;;;;;1999.90;999.90;;;;;;;8.98;100.00;100420.34;4997207;28;20053;-49
2021/12/24 11:46:01;;;;;;;1999.90;999.90;;;;;;;8.96;100.00;100415.13;4996601;28;20540;-50
2021/12/24 11:48:31;;;;;;;1999.90;999.90;;;;;;;9.02;100.00;100415.09;4997185;28;20380;-50
2021/12/24 11:50:58;;;;;;;1999.90;999.90;;;;;;;9.02;100.00;100429.84;4996912;28;20033;-52
2021/12/24 11:53:25;;;;;;;1999.90;999.90;;;;;;;9.00;100.00;100432.47;4996932;28;20469;-47
2021/12/24 11:55:51;;;;;;;1999.90;999.90;;;;;;;8.94;100.00;100442.94;4997010;28;20033;-48
2021/12/24 11:58:20;;;;;;;1999.90;999.90;;;;;;;8.97;100.00;100437.69;4996677;28;20022;-47
2021/12/24 12:00:49;;;;;;;1999.90;999.90;;;;;;;8.95;100.00;100444.69;4996781;28;20033;-48
2021/12/24 12:03:37;;;;;;;1999.90;999.90;;;;;;;8.89;100.00;100439.50;4996782;28;20073;-48
2021/12/24 12:06:10;;;;;;;1999.90;999.90;;;;;;;8.93;100.00;100441.22;4996747;28;20022;-48
2021/12/24 12:08:40;;;;;;;1999.90;999.90;;;;;;;8.90;100.00;100441.25;4996692;28;20025;-47
2021/12/24 12:11:14;;;;;;;67.80;29.48;;;;;;;8.95;100.00;100434.25;4996347;28;20097;-47
2021/12/24 12:13:44;;;;;;;50.22;20.65;;;;;;;9.00;100.00;100442.88;4996588;28;20120;-49
2021/12/24 12:16:13;;;;;;;38.27;15.80;;;;;;;9.09;100.00;100431.53;4995380;28;20030;-50
2021/12/24 12:18:44;;;;;;;25.33;13.60;;;;;;;9.27;100.00;100437.44;4996378;28;20425;-47
2021/12/24 12:21:21;;;;;;;35.10;15.50;;;;;;;9.53;100.00;100433.69;4996604;28;20585;-48
2021/12/24 12:26:46;;;;;;;32.15;13.15;;;;;;;9.64;100.00;100432.69;4996604;28;20121;-50
2021/12/24 12:29:15;;;;;;;25.35;12.38;;;;;;;9.44;100.00;100425.09;4996425;28;20379;-49
2021/12/24 12:31:41;;;;;;;32.80;12.93;;;;;;;9.43;100.00;100425.97;4996309;28;20026;-49
2021/12/24 12:34:44;;;;;;;31.13;13.68;;;;;;;9.43;100.00;100438.16;4996562;28;20084;-50
2021/12/24 12:37:12;;;;;;;33.50;15.02;;;;;;;9.32;100.00;100432.16;4996154;28;20033;-48
2021/12/24 12:39:38;;;;;;;32.95;15.05;;;;;;;9.35;100.00;100424.34;4996220;28;20117;-48
2021/12/24 12:42:04;;;;;;;30.98;13.82;;;;;;;9.29;100.00;100420.03;4995877;28;20037;-48
2021/12/24 12:44:33;;;;;;;36.60;17.25;;;;;;;9.33;100.00;100426.94;4996031;28;20026;-49
2021/12/24 12:47:16;;;;;;;32.80;14.18;;;;;;;9.25;100.00;100422.69;4996031;28;20118;-48
2021/12/24 12:49:41;;;;;;;29.55;13.05;;;;;;;9.26;100.00;100420.06;4995987;28;20022;-48
2021/12/24 12:52:21;;;;;;;25.75;12.98;;;;;;;9.36;100.00;100421.69;4995799;28;20474;-50
2021/12/24 12:54:49;;;;;;;32.88;14.90;;;;;;;9.38;100.00;100408.66;4995929;28;20030;-47
2021/12/24 12:57:36;;;;;;;24.33;12.55;;;;;;;9.40;100.00;100412.97;4995588;28;20050;-47